sensor_id;sensor_type;location;lat;lon;timestamp;temperature;humidity
19037;DHT22;9651;49.138;8.900;2022-10-31T00:01:11;11.50;99.90
19037;DHT22;9651;49.138;8.900;2022-10-31T00:05:14;11.40;99.90
19037;DHT22;9651;49.138;8.900;2022-10-31T00:09:15;11.40;99.90
19037;DHT22;9651;49.138;8.900;2022-10-31T00:13:17;11.40;99.90
19037;DHT22;9651;49.138;8.900;2022-10-31T00:17:20;11.40;99.90
19037;DHT22;9651;49.138;8.900;2022-10-31T00:21:23;11.30;99.90
19037;DHT22;9651;49.138;8.900;2022-10-31T00:25:25;11.30;99.90
19037;DHT22;9651;49.138;8.900;2022-10-31T00:29:27;11.30;99.90
19037;DHT22;9651;49.138;8.900;2022-10-31T00:33:32;11.20;99.90
19037;DHT22;9651;49.138;8.900;2022-10-31T00:37:34;11.20;99.90
19037;DHT22;9651;49.138;8.900;2022-10-31T00:41:36;11.20;99.90
19037;DHT22;9651;49.138;8.900;2022-10-31T00:45:44;11.20;99.90
19037;DHT22;9651;49.138;8.900;2022-10-31T00:49:47;11.30;99.90
19037;DHT22;9651;49.138;8.900;2022-10-31T00:53:49;11.30;99.90
19037;DHT22;9651;49.138;8.900;2022-10-31T00:57:51;11.30;99.90
19037;DHT22;9651;49.138;8.900;2022-10-31T01:01:52;11.30;99.90
19037;DHT22;9651;49.138;8.900;2022-10-31T01:06:01;11.30;99.90
19037;DHT22;9651;49.138;8.900;2022-10-31T01:10:07;11.20;99.90
19037;DHT22;9651;49.138;8.900;2022-10-31T01:14:09;11.10;99.90
19037;DHT22;9651;49.138;8.900;2022-10-31T01:18:11;11.10;99.90
19037;DHT22;9651;49.138;8.900;2022-10-31T01:22:14;11.10;99.90
19037;DHT22;9651;49.138;8.900;2022-10-31T01:26:18;11.00;99.90
19037;DHT22;9651;49.138;8.900;2022-10-31T01:30:20;11.00;99.90
19037;DHT22;9651;49.138;8.900;2022-10-31T01:34:21;11.00;99.90
19037;DHT22;9651;49.138;8.900;2022-10-31T01:38:25;11.00;99.90
19037;DHT22;9651;49.138;8.900;2022-10-31T01:42:28;11.00;99.90
19037;DHT22;9651;49.138;8.900;2022-10-31T01:46:32;11.00;99.90
19037;DHT22;9651;49.138;8.900;2022-10-31T01:50:36;11.00;99.90
19037;DHT22;9651;49.138;8.900;2022-10-31T01:54:43;10.90;99.90
19037;DHT22;9651;49.138;8.900;2022-10-31T01:58:46;10.90;99.90
19037;DHT22;9651;49.138;8.900;2022-10-31T02:02:51;10.80;99.90
19037;DHT22;9651;49.138;8.900;2022-10-31T02:06:59;10.80;99.90
19037;DHT22;9651;49.138;8.900;2022-10-31T02:11:05;10.80;99.90
19037;DHT22;9651;49.138;8.900;2022-10-31T02:15:09;10.80;99.90
19037;DHT22;9651;49.138;8.900;2022-10-31T02:19:17;10.80;99.90
19037;DHT22;9651;49.138;8.900;2022-10-31T02:23:53;10.80;99.90
19037;DHT22;9651;49.138;8.900;2022-10-31T02:28:24;10.70;99.90
19037;DHT22;9651;49.138;8.900;2022-10-31T02:32:34;10.70;99.90
19037;DHT22;9651;49.138;8.900;2022-10-31T02:36:42;10.70;99.90
19037;DHT22;9651;49.138;8.900;2022-10-31T02:40:51;10.70;99.90
19037;DHT22;9651;49.138;8.900;2022-10-31T02:45:06;10.70;99.90
19037;DHT22;9651;49.138;8.900;2022-10-31T02:49:18;10.70;99.90
19037;DHT22;9651;49.138;8.900;2022-10-31T02:53:20;10.80;99.90
19037;DHT22;9651;49.138;8.900;2022-10-31T02:57:25;10.80;99.90
19037;DHT22;9651;49.138;8.900;2022-10-31T03:01:56;10.70;99.90
19037;DHT22;9651;49.138;8.900;2022-10-31T03:06:08;10.70;99.90
19037;DHT22;9651;49.138;8.900;2022-10-31T03:10:17;10.70;99.90
19037;DHT22;9651;49.138;8.900;2022-10-31T03:14:26;10.70;99.90
19037;DHT22;9651;49.138;8.900;2022-10-31T03:18:37;10.70;99.90
19037;DHT22;9651;49.138;8.900;2022-10-31T03:22:42;10.70;99.90
19037;DHT22;9651;49.138;8.900;2022-10-31T03:26:49;10.70;99.90
19037;DHT22;9651;49.138;8.900;2022-10-31T03:30:53;10.70;99.90
19037;DHT22;9651;49.138;8.900;2022-10-31T03:34:58;10.70;99.90
19037;DHT22;9651;49.138;8.900;2022-10-31T03:39:06;10.70;99.90
19037;DHT22;9651;49.138;8.900;2022-10-31T03:43:15;10.60;99.90
19037;DHT22;9651;49.138;8.900;2022-10-31T03:47:17;10.60;99.90
19037;DHT22;9651;49.138;8.900;2022-10-31T03:51:26;10.60;99.90
19037;DHT22;9651;49.138;8.900;2022-10-31T03:55:32;10.50;99.90
19037;DHT22;9651;49.138;8.900;2022-10-31T03:59:40;10.60;99.90
19037;DHT22;9651;49.138;8.900;2022-10-31T04:03:44;10.50;99.90
19037;DHT22;9651;49.138;8.900;2022-10-31T04:07:50;10.50;99.90
19037;DHT22;9651;49.138;8.900;2022-10-31T04:11:57;10.50;99.90
19037;DHT22;9651;49.138;8.900;2022-10-31T04:16:25;10.50;99.90
19037;DHT22;9651;49.138;8.900;2022-10-31T04:20:30;10.50;99.90
19037;DHT22;9651;49.138;8.900;2022-10-31T04:24:32;10.50;99.90
19037;DHT22;9651;49.138;8.900;2022-10-31T04:28:35;10.50;99.90
19037;DHT22;9651;49.138;8.900;2022-10-31T04:32:37;10.50;99.90
19037;DHT22;9651;49.138;8.900;2022-10-31T04:36:42;10.50;99.90
19037;DHT22;9651;49.138;8.900;2022-10-31T04:40:44;10.50;99.90
19037;DHT22;9651;49.138;8.900;2022-10-31T04:45:09;10.50;99.90
19037;DHT22;9651;49.138;8.900;2022-10-31T04:49:11;10.50;99.90
19037;DHT22;9651;49.138;8.900;2022-10-31T04:53:13;10.50;99.90
19037;DHT22;9651;49.138;8.900;2022-10-31T04:57:45;10.50;99.90
19037;DHT22;9651;49.138;8.900;2022-10-31T05:01:49;10.50;99.90
19037;DHT22;9651;49.138;8.900;2022-10-31T05:05:56;10.40;99.90
19037;DHT22;9651;49.138;8.900;2022-10-31T05:09:58;10.40;99.90
19037;DHT22;9651;49.138;8.900;2022-10-31T05:14:00;10.40;99.90
19037;DHT22;9651;49.138;8.900;2022-10-31T05:18:35;10.40;99.90
19037;DHT22;9651;49.138;8.900;2022-10-31T05:22:47;10.40;99.90
19037;DHT22;9651;49.138;8.900;2022-10-31T05:26:49;10.40;99.90
19037;DHT22;9651;49.138;8.900;2022-10-31T05:30:52;10.40;99.90
19037;DHT22;9651;49.138;8.900;2022-10-31T05:34:56;10.40;99.90
19037;DHT22;9651;49.138;8.900;2022-10-31T05:39:34;10.30;99.90
19037;DHT22;9651;49.138;8.900;2022-10-31T05:43:42;10.30;99.90
19037;DHT22;9651;49.138;8.900;2022-10-31T05:47:50;10.30;99.90
19037;DHT22;9651;49.138;8.900;2022-10-31T05:52:12;10.30;99.90
19037;DHT22;9651;49.138;8.900;2022-10-31T05:56:22;10.30;99.90
19037;DHT22;9651;49.138;8.900;2022-10-31T06:00:24;10.30;99.90
19037;DHT22;9651;49.138;8.900;2022-10-31T06:04:27;10.30;99.90
19037;DHT22;9651;49.138;8.900;2022-10-31T06:08:30;10.20;99.90
19037;DHT22;9651;49.138;8.900;2022-10-31T06:12:36;10.30;99.90
19037;DHT22;9651;49.138;8.900;2022-10-31T06:17:07;10.30;99.90
19037;DHT22;9651;49.138;8.900;2022-10-31T06:21:24;10.20;99.90
19037;DHT22;9651;49.138;8.900;2022-10-31T06:25:27;10.20;99.90
19037;DHT22;9651;49.138;8.900;2022-10-31T06:29:29;10.20;99.90
19037;DHT22;9651;49.138;8.900;2022-10-31T06:33:41;10.20;99.90
19037;DHT22;9651;49.138;8.900;2022-10-31T06:37:43;10.30;99.90
19037;DHT22;9651;49.138;8.900;2022-10-31T06:42:03;10.40;99.90
19037;DHT22;9651;49.138;8.900;2022-10-31T06:46:06;10.40;99.90
19037;DHT22;9651;49.138;8.900;2022-10-31T06:50:14;10.50;99.90
19037;DHT22;9651;49.138;8.900;2022-10-31T06:54:16;10.60;99.90
19037;DHT22;9651;49.138;8.900;2022-10-31T06:58:20;10.70;99.90
19037;DHT22;9651;49.138;8.900;2022-10-31T07:02:23;10.80;99.90
19037;DHT22;9651;49.138;8.900;2022-10-31T07:06:25;10.90;99.90
19037;DHT22;9651;49.138;8.900;2022-10-31T07:10:31;10.90;99.90
19037;DHT22;9651;49.138;8.900;2022-10-31T07:14:37;11.00;99.90
19037;DHT22;9651;49.138;8.900;2022-10-31T07:18:40;11.20;99.90
19037;DHT22;9651;49.138;8.900;2022-10-31T07:22:43;11.30;99.90
19037;DHT22;9651;49.138;8.900;2022-10-31T07:26:46;11.30;99.90
19037;DHT22;9651;49.138;8.900;2022-10-31T07:30:51;11.30;99.90
19037;DHT22;9651;49.138;8.900;2022-10-31T07:34:54;11.30;99.90
19037;DHT22;9651;49.138;8.900;2022-10-31T07:38:58;11.40;99.90
19037;DHT22;9651;49.138;8.900;2022-10-31T07:43:00;11.50;99.90
19037;DHT22;9651;49.138;8.900;2022-10-31T07:47:20;11.70;99.90
19037;DHT22;9651;49.138;8.900;2022-10-31T07:51:40;11.80;99.90
19037;DHT22;9651;49.138;8.900;2022-10-31T07:56:08;12.00;99.90
19037;DHT22;9651;49.138;8.900;2022-10-31T08:00:10;12.10;99.90
19037;DHT22;9651;49.138;8.900;2022-10-31T08:04:16;12.30;99.90
19037;DHT22;9651;49.138;8.900;2022-10-31T08:08:37;12.50;99.90
19037;DHT22;9651;49.138;8.900;2022-10-31T08:12:39;12.70;99.90
19037;DHT22;9651;49.138;8.900;2022-10-31T08:16:42;12.90;99.90
19037;DHT22;9651;49.138;8.900;2022-10-31T08:20:46;13.10;99.90
19037;DHT22;9651;49.138;8.900;2022-10-31T08:24:48;13.40;99.90
19037;DHT22;9651;49.138;8.900;2022-10-31T08:28:51;13.70;99.90
19037;DHT22;9651;49.138;8.900;2022-10-31T08:33:03;14.00;99.90
19037;DHT22;9651;49.138;8.900;2022-10-31T08:37:25;14.20;99.90
19037;DHT22;9651;49.138;8.900;2022-10-31T08:41:29;14.40;99.90
19037;DHT22;9651;49.138;8.900;2022-10-31T08:45:34;14.50;99.90
19037;DHT22;9651;49.138;8.900;2022-10-31T08:49:37;14.70;99.90
19037;DHT22;9651;49.138;8.900;2022-10-31T08:53:40;15.00;99.90
19037;DHT22;9651;49.138;8.900;2022-10-31T08:58:12;15.00;99.90
19037;DHT22;9651;49.138;8.900;2022-10-31T09:02:21;15.10;99.90
19037;DHT22;9651;49.138;8.900;2022-10-31T09:06:25;15.00;99.90
19037;DHT22;9651;49.138;8.900;2022-10-31T09:10:30;15.20;99.90
19037;DHT22;9651;49.138;8.900;2022-10-31T09:14:32;15.60;99.90
19037;DHT22;9651;49.138;8.900;2022-10-31T09:18:55;16.20;99.90
19037;DHT22;9651;49.138;8.900;2022-10-31T09:23:01;16.60;99.90
19037;DHT22;9651;49.138;8.900;2022-10-31T09:27:06;16.80;99.90
19037;DHT22;9651;49.138;8.900;2022-10-31T09:31:12;17.00;99.90
19037;DHT22;9651;49.138;8.900;2022-10-31T09:35:33;17.40;99.90
19037;DHT22;9651;49.138;8.900;2022-10-31T09:39:35;17.70;99.90
19037;DHT22;9651;49.138;8.900;2022-10-31T09:43:54;17.90;99.90
19037;DHT22;9651;49.138;8.900;2022-10-31T09:48:16;18.10;99.90
19037;DHT22;9651;49.138;8.900;2022-10-31T09:52:54;18.30;99.90
19037;DHT22;9651;49.138;8.900;2022-10-31T09:56:59;18.50;99.90
19037;DHT22;9651;49.138;8.900;2022-10-31T10:01:04;18.80;99.90
19037;DHT22;9651;49.138;8.900;2022-10-31T10:05:11;18.90;99.90
19037;DHT22;9651;49.138;8.900;2022-10-31T10:09:16;19.30;99.90
19037;DHT22;9651;49.138;8.900;2022-10-31T10:13:45;19.30;99.90
19037;DHT22;9651;49.138;8.900;2022-10-31T12:54:26;18.40;99.90
19037;DHT22;9651;49.138;8.900;2022-10-31T12:58:32;18.50;99.90
19037;DHT22;9651;49.138;8.900;2022-10-31T13:02:41;18.70;99.90
19037;DHT22;9651;49.138;8.900;2022-10-31T13:06:48;18.80;99.90
19037;DHT22;9651;49.138;8.900;2022-10-31T13:11:05;18.90;99.90
19037;DHT22;9651;49.138;8.900;2022-10-31T13:15:14;18.90;99.90
19037;DHT22;9651;49.138;8.900;2022-10-31T13:19:20;18.90;99.90
19037;DHT22;9651;49.138;8.900;2022-10-31T13:23:27;18.70;99.90
19037;DHT22;9651;49.138;8.900;2022-10-31T13:27:47;18.50;99.90
19037;DHT22;9651;49.138;8.900;2022-10-31T13:31:51;18.40;99.90
19037;DHT22;9651;49.138;8.900;2022-10-31T13:35:57;18.20;99.90
19037;DHT22;9651;49.138;8.900;2022-10-31T13:40:14;18.20;99.90
19037;DHT22;9651;49.138;8.900;2022-10-31T13:44:22;18.30;99.90
19037;DHT22;9651;49.138;8.900;2022-10-31T13:48:37;18.40;99.90
19037;DHT22;9651;49.138;8.900;2022-10-31T13:52:39;18.50;99.90
19037;DHT22;9651;49.138;8.900;2022-10-31T13:56:41;18.50;99.90
19037;DHT22;9651;49.138;8.900;2022-10-31T14:00:44;18.70;99.90
19037;DHT22;9651;49.138;8.900;2022-10-31T14:04:48;18.90;99.90
19037;DHT22;9651;49.138;8.900;2022-10-31T14:08:51;19.20;99.90
19037;DHT22;9651;49.138;8.900;2022-10-31T14:13:02;19.40;99.90
19037;DHT22;9651;49.138;8.900;2022-10-31T14:17:17;19.40;99.90
19037;DHT22;9651;49.138;8.900;2022-10-31T14:21:28;19.30;99.90
19037;DHT22;9651;49.138;8.900;2022-10-31T14:25:32;19.00;99.90
19037;DHT22;9651;49.138;8.900;2022-10-31T14:29:34;18.80;99.90
19037;DHT22;9651;49.138;8.900;2022-10-31T14:33:42;18.70;99.90
19037;DHT22;9651;49.138;8.900;2022-10-31T14:38:29;18.70;99.90
19037;DHT22;9651;49.138;8.900;2022-10-31T14:42:46;18.60;99.90
19037;DHT22;9651;49.138;8.900;2022-10-31T14:46:55;18.60;99.90
19037;DHT22;9651;49.138;8.900;2022-10-31T14:51:02;18.50;99.90
19037;DHT22;9651;49.138;8.900;2022-10-31T14:55:07;18.40;99.90
19037;DHT22;9651;49.138;8.900;2022-10-31T14:59:15;18.30;99.90
19037;DHT22;9651;49.138;8.900;2022-10-31T15:03:24;18.20;99.90
19037;DHT22;9651;49.138;8.900;2022-10-31T15:07:29;18.10;99.90
19037;DHT22;9651;49.138;8.900;2022-10-31T15:25:14;17.60;99.90
19037;DHT22;9651;49.138;8.900;2022-10-31T15:29:19;17.50;99.90
19037;DHT22;9651;49.138;8.900;2022-10-31T15:33:24;17.40;99.90
19037;DHT22;9651;49.138;8.900;2022-10-31T15:37:26;17.10;99.90
19037;DHT22;9651;49.138;8.900;2022-10-31T15:41:34;16.70;99.90
19037;DHT22;9651;49.138;8.900;2022-10-31T15:45:38;16.50;99.90
19037;DHT22;9651;49.138;8.900;2022-10-31T15:49:42;16.40;99.90
19037;DHT22;9651;49.138;8.900;2022-10-31T15:53:46;16.40;99.90
19037;DHT22;9651;49.138;8.900;2022-10-31T15:57:53;16.40;99.90
19037;DHT22;9651;49.138;8.900;2022-10-31T16:01:59;16.30;99.90
19037;DHT22;9651;49.138;8.900;2022-10-31T16:06:03;16.30;99.90
19037;DHT22;9651;49.138;8.900;2022-10-31T16:10:22;16.30;99.90
19037;DHT22;9651;49.138;8.900;2022-10-31T16:14:28;16.30;99.90
19037;DHT22;9651;49.138;8.900;2022-10-31T16:18:37;16.20;99.90
19037;DHT22;9651;49.138;8.900;2022-10-31T16:22:40;16.20;99.90
19037;DHT22;9651;49.138;8.900;2022-10-31T16:26:47;16.10;99.90
19037;DHT22;9651;49.138;8.900;2022-10-31T16:30:52;16.10;99.90
19037;DHT22;9651;49.138;8.900;2022-10-31T16:34:58;16.00;99.90
19037;DHT22;9651;49.138;8.900;2022-10-31T16:39:00;15.90;99.90
19037;DHT22;9651;49.138;8.900;2022-10-31T16:43:02;15.90;99.90
19037;DHT22;9651;49.138;8.900;2022-10-31T16:47:11;15.80;99.90
19037;DHT22;9651;49.138;8.900;2022-10-31T16:51:14;15.70;99.90
19037;DHT22;9651;49.138;8.900;2022-10-31T16:55:17;15.70;99.90
19037;DHT22;9651;49.138;8.900;2022-10-31T16:59:20;15.60;99.90
19037;DHT22;9651;49.138;8.900;2022-10-31T17:03:23;15.50;99.90
19037;DHT22;9651;49.138;8.900;2022-10-31T17:07:25;15.40;99.90
19037;DHT22;9651;49.138;8.900;2022-10-31T17:11:27;15.30;99.90
19037;DHT22;9651;49.138;8.900;2022-10-31T17:15:34;15.10;99.90
19037;DHT22;9651;49.138;8.900;2022-10-31T17:19:40;15.10;99.90
19037;DHT22;9651;49.138;8.900;2022-10-31T17:23:42;15.10;99.90
19037;DHT22;9651;49.138;8.900;2022-10-31T17:27:44;15.00;99.90
19037;DHT22;9651;49.138;8.900;2022-10-31T17:31:46;14.90;99.90
19037;DHT22;9651;49.138;8.900;2022-10-31T17:35:50;14.90;99.90
19037;DHT22;9651;49.138;8.900;2022-10-31T17:39:52;14.90;99.90
19037;DHT22;9651;49.138;8.900;2022-10-31T17:43:54;14.90;99.90
19037;DHT22;9651;49.138;8.900;2022-10-31T17:47:56;14.80;99.90
19037;DHT22;9651;49.138;8.900;2022-10-31T17:51:59;14.80;99.90
19037;DHT22;9651;49.138;8.900;2022-10-31T17:56:02;14.80;99.90
19037;DHT22;9651;49.138;8.900;2022-10-31T18:00:07;14.70;99.90
19037;DHT22;9651;49.138;8.900;2022-10-31T18:04:12;14.70;99.90
19037;DHT22;9651;49.138;8.900;2022-10-31T18:08:15;14.70;99.90
19037;DHT22;9651;49.138;8.900;2022-10-31T18:12:17;14.60;99.90
19037;DHT22;9651;49.138;8.900;2022-10-31T18:16:19;14.40;99.90
19037;DHT22;9651;49.138;8.900;2022-10-31T18:20:20;14.40;99.90
19037;DHT22;9651;49.138;8.900;2022-10-31T18:24:24;14.10;99.90
19037;DHT22;9651;49.138;8.900;2022-10-31T18:28:28;14.10;99.90
19037;DHT22;9651;49.138;8.900;2022-10-31T18:32:29;14.00;99.90
19037;DHT22;9651;49.138;8.900;2022-10-31T18:36:31;14.10;99.90
19037;DHT22;9651;49.138;8.900;2022-10-31T18:40:35;14.10;99.90
19037;DHT22;9651;49.138;8.900;2022-10-31T18:44:37;14.10;99.90
19037;DHT22;9651;49.138;8.900;2022-10-31T18:48:39;14.10;99.90
19037;DHT22;9651;49.138;8.900;2022-10-31T18:52:42;14.10;99.90
19037;DHT22;9651;49.138;8.900;2022-10-31T18:56:45;14.00;99.90
19037;DHT22;9651;49.138;8.900;2022-10-31T19:00:47;14.00;99.90
19037;DHT22;9651;49.138;8.900;2022-10-31T19:04:49;14.00;99.90
19037;DHT22;9651;49.138;8.900;2022-10-31T19:08:56;14.00;99.90
19037;DHT22;9651;49.138;8.900;2022-10-31T19:13:01;14.00;99.90
19037;DHT22;9651;49.138;8.900;2022-10-31T19:17:02;14.00;99.90
19037;DHT22;9651;49.138;8.900;2022-10-31T19:21:05;14.00;99.90
19037;DHT22;9651;49.138;8.900;2022-10-31T19:25:07;13.90;99.90
19037;DHT22;9651;49.138;8.900;2022-10-31T19:29:11;13.90;99.90
19037;DHT22;9651;49.138;8.900;2022-10-31T19:33:13;13.90;99.90
19037;DHT22;9651;49.138;8.900;2022-10-31T19:37:15;13.90;99.90
19037;DHT22;9651;49.138;8.900;2022-10-31T19:41:18;13.90;99.90
19037;DHT22;9651;49.138;8.900;2022-10-31T19:45:22;13.90;99.90
19037;DHT22;9651;49.138;8.900;2022-10-31T19:49:24;13.80;99.90
19037;DHT22;9651;49.138;8.900;2022-10-31T19:53:27;13.70;99.90
19037;DHT22;9651;49.138;8.900;2022-10-31T19:57:32;13.70;99.90
19037;DHT22;9651;49.138;8.900;2022-10-31T20:01:35;13.70;99.90
19037;DHT22;9651;49.138;8.900;2022-10-31T20:05:39;13.80;99.90
19037;DHT22;9651;49.138;8.900;2022-10-31T20:09:43;13.80;99.90
19037;DHT22;9651;49.138;8.900;2022-10-31T20:13:45;13.70;99.90
19037;DHT22;9651;49.138;8.900;2022-10-31T20:17:48;13.50;99.90
19037;DHT22;9651;49.138;8.900;2022-10-31T20:21:50;13.30;99.90
19037;DHT22;9651;49.138;8.900;2022-10-31T20:25:52;13.20;99.90
19037;DHT22;9651;49.138;8.900;2022-10-31T20:29:54;13.20;99.90
19037;DHT22;9651;49.138;8.900;2022-10-31T20:33:57;13.10;99.90
19037;DHT22;9651;49.138;8.900;2022-10-31T20:37:59;13.10;99.90
19037;DHT22;9651;49.138;8.900;2022-10-31T20:42:01;13.10;99.90
19037;DHT22;9651;49.138;8.900;2022-10-31T20:46:05;13.10;99.90
19037;DHT22;9651;49.138;8.900;2022-10-31T20:50:08;13.10;99.90
19037;DHT22;9651;49.138;8.900;2022-10-31T20:54:11;13.00;99.90
19037;DHT22;9651;49.138;8.900;2022-10-31T20:58:13;13.00;99.90
19037;DHT22;9651;49.138;8.900;2022-10-31T21:02:15;12.90;99.90
19037;DHT22;9651;49.138;8.900;2022-10-31T21:06:20;12.80;99.90
19037;DHT22;9651;49.138;8.900;2022-10-31T21:10:26;12.80;99.90
19037;DHT22;9651;49.138;8.900;2022-10-31T21:14:27;12.80;99.90
19037;DHT22;9651;49.138;8.900;2022-10-31T21:18:29;12.80;99.90
19037;DHT22;9651;49.138;8.900;2022-10-31T21:22:33;12.70;99.90
19037;DHT22;9651;49.138;8.900;2022-10-31T21:26:36;12.60;99.90
19037;DHT22;9651;49.138;8.900;2022-10-31T21:30:39;12.60;99.90
19037;DHT22;9651;49.138;8.900;2022-10-31T21:34:41;12.60;99.90
19037;DHT22;9651;49.138;8.900;2022-10-31T21:38:48;12.50;99.90
19037;DHT22;9651;49.138;8.900;2022-10-31T21:42:50;12.50;99.90
19037;DHT22;9651;49.138;8.900;2022-10-31T21:46:52;12.40;99.90
19037;DHT22;9651;49.138;8.900;2022-10-31T21:50:54;12.40;99.90
19037;DHT22;9651;49.138;8.900;2022-10-31T21:54:57;12.30;99.90
19037;DHT22;9651;49.138;8.900;2022-10-31T21:58:59;12.30;99.90
19037;DHT22;9651;49.138;8.900;2022-10-31T22:03:01;12.30;99.90
19037;DHT22;9651;49.138;8.900;2022-10-31T22:07:03;12.30;99.90
19037;DHT22;9651;49.138;8.900;2022-10-31T22:11:07;12.30;99.90
19037;DHT22;9651;49.138;8.900;2022-10-31T22:15:09;12.40;99.90
19037;DHT22;9651;49.138;8.900;2022-10-31T22:19:12;12.40;99.90
19037;DHT22;9651;49.138;8.900;2022-10-31T22:23:14;12.40;99.90
19037;DHT22;9651;49.138;8.900;2022-10-31T22:27:18;12.40;99.90
19037;DHT22;9651;49.138;8.900;2022-10-31T22:31:21;12.40;99.90
19037;DHT22;9651;49.138;8.900;2022-10-31T22:35:23;12.30;99.90
19037;DHT22;9651;49.138;8.900;2022-10-31T22:39:25;12.30;99.90
19037;DHT22;9651;49.138;8.900;2022-10-31T22:43:29;12.30;99.90
19037;DHT22;9651;49.138;8.900;2022-10-31T22:47:31;12.30;99.90
19037;DHT22;9651;49.138;8.900;2022-10-31T22:51:35;12.30;99.90
19037;DHT22;9651;49.138;8.900;2022-10-31T22:55:37;12.20;99.90
19037;DHT22;9651;49.138;8.900;2022-10-31T22:59:40;12.20;99.90
19037;DHT22;9651;49.138;8.900;2022-10-31T23:03:42;12.20;99.90
19037;DHT22;9651;49.138;8.900;2022-10-31T23:07:44;12.30;99.90
19037;DHT22;9651;49.138;8.900;2022-10-31T23:11:46;12.30;99.90
19037;DHT22;9651;49.138;8.900;2022-10-31T23:15:49;12.30;99.90
19037;DHT22;9651;49.138;8.900;2022-10-31T23:19:50;12.30;99.90
19037;DHT22;9651;49.138;8.900;2022-10-31T23:23:52;12.30;99.90
19037;DHT22;9651;49.138;8.900;2022-10-31T23:27:54;12.30;99.90
19037;DHT22;9651;49.138;8.900;2022-10-31T23:31:57;12.30;99.90
19037;DHT22;9651;49.138;8.900;2022-10-31T23:35:59;12.40;99.90
19037;DHT22;9651;49.138;8.900;2022-10-31T23:40:01;12.40;99.90
19037;DHT22;9651;49.138;8.900;2022-10-31T23:44:03;12.40;99.90
19037;DHT22;9651;49.138;8.900;2022-10-31T23:48:07;12.30;99.90
19037;DHT22;9651;49.138;8.900;2022-10-31T23:52:09;12.30;99.90
19037;DHT22;9651;49.138;8.900;2022-10-31T23:56:11;12.30;99.90
